sensor_id;sensor_type;location;lat;lon;timestamp;temperature;humidity
16964;DHT22;8598;50.508;10.436;2022-09-09T00:02:18;10.50;99.90
16964;DHT22;8598;50.508;10.436;2022-09-09T00:04:52;10.30;99.90
16964;DHT22;8598;50.508;10.436;2022-09-09T00:07:25;10.30;99.90
16964;DHT22;8598;50.508;10.436;2022-09-09T00:10:03;10.50;99.90
16964;DHT22;8598;50.508;10.436;2022-09-09T00:12:38;10.20;99.90
16964;DHT22;8598;50.508;10.436;2022-09-09T00:15:12;10.20;99.90
16964;DHT22;8598;50.508;10.436;2022-09-09T00:17:45;10.20;99.90
16964;DHT22;8598;50.508;10.436;2022-09-09T00:20:16;10.30;99.90
16964;DHT22;8598;50.508;10.436;2022-09-09T00:22:49;10.50;99.90
16964;DHT22;8598;50.508;10.436;2022-09-09T00:25:26;10.50;99.90
16964;DHT22;8598;50.508;10.436;2022-09-09T00:27:56;10.50;99.90
16964;DHT22;8598;50.508;10.436;2022-09-09T00:30:24;10.50;99.90
16964;DHT22;8598;50.508;10.436;2022-09-09T00:32:54;10.50;99.90
16964;DHT22;8598;50.508;10.436;2022-09-09T00:35:26;10.50;99.90
16964;DHT22;8598;50.508;10.436;2022-09-09T00:37:58;10.40;99.90
16964;DHT22;8598;50.508;10.436;2022-09-09T00:40:31;10.30;99.90
16964;DHT22;8598;50.508;10.436;2022-09-09T00:43:10;10.30;99.90
16964;DHT22;8598;50.508;10.436;2022-09-09T00:45:59;10.30;99.90
16964;DHT22;8598;50.508;10.436;2022-09-09T00:48:35;10.40;99.90
16964;DHT22;8598;50.508;10.436;2022-09-09T00:51:11;10.40;99.90
16964;DHT22;8598;50.508;10.436;2022-09-09T00:56:43;10.40;99.90
16964;DHT22;8598;50.508;10.436;2022-09-09T00:59:22;10.30;99.90
16964;DHT22;8598;50.508;10.436;2022-09-09T01:01:51;10.30;99.90
16964;DHT22;8598;50.508;10.436;2022-09-09T01:04:25;10.20;99.90
16964;DHT22;8598;50.508;10.436;2022-09-09T01:07:01;10.20;99.90
16964;DHT22;8598;50.508;10.436;2022-09-09T01:09:37;10.20;99.90
16964;DHT22;8598;50.508;10.436;2022-09-09T01:12:11;10.10;99.90
16964;DHT22;8598;50.508;10.436;2022-09-09T01:14:45;10.10;99.90
16964;DHT22;8598;50.508;10.436;2022-09-09T01:17:16;10.00;99.90
16964;DHT22;8598;50.508;10.436;2022-09-09T01:19:55;10.30;99.90
16964;DHT22;8598;50.508;10.436;2022-09-09T01:22:33;10.10;99.90
16964;DHT22;8598;50.508;10.436;2022-09-09T01:25:22;10.10;99.90
16964;DHT22;8598;50.508;10.436;2022-09-09T01:27:57;10.00;99.90
16964;DHT22;8598;50.508;10.436;2022-09-09T01:30:26;9.90;99.90
16964;DHT22;8598;50.508;10.436;2022-09-09T01:32:56;9.90;99.90
16964;DHT22;8598;50.508;10.436;2022-09-09T01:35:37;9.90;99.90
16964;DHT22;8598;50.508;10.436;2022-09-09T01:38:05;9.90;99.90
16964;DHT22;8598;50.508;10.436;2022-09-09T01:40:32;9.90;99.90
16964;DHT22;8598;50.508;10.436;2022-09-09T01:43:01;10.00;99.90
16964;DHT22;8598;50.508;10.436;2022-09-09T01:45:29;10.70;99.90
16964;DHT22;8598;50.508;10.436;2022-09-09T01:47:56;9.80;99.90
16964;DHT22;8598;50.508;10.436;2022-09-09T01:50:24;9.80;99.90
16964;DHT22;8598;50.508;10.436;2022-09-09T01:52:55;9.80;99.90
16964;DHT22;8598;50.508;10.436;2022-09-09T01:55:29;9.90;99.90
16964;DHT22;8598;50.508;10.436;2022-09-09T01:58:07;9.80;99.90
16964;DHT22;8598;50.508;10.436;2022-09-09T02:00:41;9.90;99.90
16964;DHT22;8598;50.508;10.436;2022-09-09T02:03:15;9.90;99.90
16964;DHT22;8598;50.508;10.436;2022-09-09T02:05:49;9.90;99.90
16964;DHT22;8598;50.508;10.436;2022-09-09T02:08:24;10.00;99.90
16964;DHT22;8598;50.508;10.436;2022-09-09T02:10:56;10.10;99.90
16964;DHT22;8598;50.508;10.436;2022-09-09T02:13:28;10.10;99.90
16964;DHT22;8598;50.508;10.436;2022-09-09T02:15:58;10.70;99.90
16964;DHT22;8598;50.508;10.436;2022-09-09T02:18:29;10.50;99.90
16964;DHT22;8598;50.508;10.436;2022-09-09T02:20:57;10.30;99.90
16964;DHT22;8598;50.508;10.436;2022-09-09T02:23:25;10.10;99.90
16964;DHT22;8598;50.508;10.436;2022-09-09T02:25:53;10.10;99.90
16964;DHT22;8598;50.508;10.436;2022-09-09T02:28:22;10.20;99.90
16964;DHT22;8598;50.508;10.436;2022-09-09T02:30:53;10.30;99.90
16964;DHT22;8598;50.508;10.436;2022-09-09T02:33:23;10.40;99.90
16964;DHT22;8598;50.508;10.436;2022-09-09T02:35:51;10.30;99.90
16964;DHT22;8598;50.508;10.436;2022-09-09T02:38:21;10.60;99.90
16964;DHT22;8598;50.508;10.436;2022-09-09T02:40:48;10.30;99.90
16964;DHT22;8598;50.508;10.436;2022-09-09T02:43:15;10.30;99.90
16964;DHT22;8598;50.508;10.436;2022-09-09T02:45:51;10.30;99.90
16964;DHT22;8598;50.508;10.436;2022-09-09T02:48:30;10.30;99.90
16964;DHT22;8598;50.508;10.436;2022-09-09T02:51:06;10.80;99.90
16964;DHT22;8598;50.508;10.436;2022-09-09T02:53:40;10.30;99.90
16964;DHT22;8598;50.508;10.436;2022-09-09T02:56:14;10.20;99.90
16964;DHT22;8598;50.508;10.436;2022-09-09T02:58:42;10.20;99.90
16964;DHT22;8598;50.508;10.436;2022-09-09T03:01:09;10.20;99.90
16964;DHT22;8598;50.508;10.436;2022-09-09T03:03:38;10.10;99.90
16964;DHT22;8598;50.508;10.436;2022-09-09T03:06:07;10.10;99.90
16964;DHT22;8598;50.508;10.436;2022-09-09T03:08:34;10.10;99.90
16964;DHT22;8598;50.508;10.436;2022-09-09T03:11:01;10.00;99.90
16964;DHT22;8598;50.508;10.436;2022-09-09T03:13:28;10.80;99.90
16964;DHT22;8598;50.508;10.436;2022-09-09T03:15:55;10.10;99.90
16964;DHT22;8598;50.508;10.436;2022-09-09T03:18:22;10.10;99.90
16964;DHT22;8598;50.508;10.436;2022-09-09T03:20:51;10.10;99.90
16964;DHT22;8598;50.508;10.436;2022-09-09T03:23:19;10.10;99.90
16964;DHT22;8598;50.508;10.436;2022-09-09T03:25:47;10.00;99.90
16964;DHT22;8598;50.508;10.436;2022-09-09T03:28:14;9.90;99.90
16964;DHT22;8598;50.508;10.436;2022-09-09T03:30:41;9.90;99.90
16964;DHT22;8598;50.508;10.436;2022-09-09T03:33:08;9.90;99.90
16964;DHT22;8598;50.508;10.436;2022-09-09T03:35:35;10.00;99.90
16964;DHT22;8598;50.508;10.436;2022-09-09T03:38:04;10.10;99.90
16964;DHT22;8598;50.508;10.436;2022-09-09T03:40:30;11.40;99.90
16964;DHT22;8598;50.508;10.436;2022-09-09T03:42:57;10.20;99.90
16964;DHT22;8598;50.508;10.436;2022-09-09T03:45:24;9.70;99.90
16964;DHT22;8598;50.508;10.436;2022-09-09T03:47:51;10.20;99.90
16964;DHT22;8598;50.508;10.436;2022-09-09T03:50:18;10.00;99.90
16964;DHT22;8598;50.508;10.436;2022-09-09T03:52:45;12.00;99.90
16964;DHT22;8598;50.508;10.436;2022-09-09T03:55:13;10.20;99.90
16964;DHT22;8598;50.508;10.436;2022-09-09T03:57:40;10.20;99.90
16964;DHT22;8598;50.508;10.436;2022-09-09T04:00:08;10.00;99.90
16964;DHT22;8598;50.508;10.436;2022-09-09T04:02:35;10.10;99.90
16964;DHT22;8598;50.508;10.436;2022-09-09T04:05:02;10.00;99.90
16964;DHT22;8598;50.508;10.436;2022-09-09T04:07:29;9.90;99.90
16964;DHT22;8598;50.508;10.436;2022-09-09T04:09:55;9.70;99.90
16964;DHT22;8598;50.508;10.436;2022-09-09T04:12:24;9.90;99.90
16964;DHT22;8598;50.508;10.436;2022-09-09T04:14:50;9.70;99.90
16964;DHT22;8598;50.508;10.436;2022-09-09T04:17:17;9.90;99.90
16964;DHT22;8598;50.508;10.436;2022-09-09T04:19:44;9.80;99.90
16964;DHT22;8598;50.508;10.436;2022-09-09T04:22:11;11.30;99.90
16964;DHT22;8598;50.508;10.436;2022-09-09T04:24:37;11.70;99.90
16964;DHT22;8598;50.508;10.436;2022-09-09T04:27:04;11.60;99.90
16964;DHT22;8598;50.508;10.436;2022-09-09T04:29:32;9.90;99.90
16964;DHT22;8598;50.508;10.436;2022-09-09T04:31:59;10.70;99.90
16964;DHT22;8598;50.508;10.436;2022-09-09T04:34:26;10.20;99.90
16964;DHT22;8598;50.508;10.436;2022-09-09T04:36:53;10.80;99.90
16964;DHT22;8598;50.508;10.436;2022-09-09T04:39:20;10.00;99.90
16964;DHT22;8598;50.508;10.436;2022-09-09T04:41:50;9.80;99.90
16964;DHT22;8598;50.508;10.436;2022-09-09T04:44:17;9.80;99.90
16964;DHT22;8598;50.508;10.436;2022-09-09T04:46:45;9.70;99.90
16964;DHT22;8598;50.508;10.436;2022-09-09T04:49:11;10.10;99.90
16964;DHT22;8598;50.508;10.436;2022-09-09T04:51:38;9.50;99.90
16964;DHT22;8598;50.508;10.436;2022-09-09T04:54:05;10.80;99.90
16964;DHT22;8598;50.508;10.436;2022-09-09T04:56:32;10.20;99.90
16964;DHT22;8598;50.508;10.436;2022-09-09T04:58:59;9.80;99.90
16964;DHT22;8598;50.508;10.436;2022-09-09T05:01:28;10.60;99.90
16964;DHT22;8598;50.508;10.436;2022-09-09T05:03:56;9.80;99.90
16964;DHT22;8598;50.508;10.436;2022-09-09T05:06:23;10.60;99.90
16964;DHT22;8598;50.508;10.436;2022-09-09T05:08:50;10.10;99.90
16964;DHT22;8598;50.508;10.436;2022-09-09T05:11:19;11.60;99.90
16964;DHT22;8598;50.508;10.436;2022-09-09T05:13:46;12.10;99.90
16964;DHT22;8598;50.508;10.436;2022-09-09T05:16:13;10.30;99.90
16964;DHT22;8598;50.508;10.436;2022-09-09T05:18:41;10.30;99.90
16964;DHT22;8598;50.508;10.436;2022-09-09T05:21:10;9.90;99.90
16964;DHT22;8598;50.508;10.436;2022-09-09T05:23:38;10.20;99.90
16964;DHT22;8598;50.508;10.436;2022-09-09T05:26:05;10.30;99.90
16964;DHT22;8598;50.508;10.436;2022-09-09T05:28:34;11.40;99.90
16964;DHT22;8598;50.508;10.436;2022-09-09T05:31:03;11.30;99.90
16964;DHT22;8598;50.508;10.436;2022-09-09T05:33:31;10.50;99.90
16964;DHT22;8598;50.508;10.436;2022-09-09T05:35:59;10.50;99.90
16964;DHT22;8598;50.508;10.436;2022-09-09T05:38:28;10.70;99.90
16964;DHT22;8598;50.508;10.436;2022-09-09T05:40:56;10.80;99.90
16964;DHT22;8598;50.508;10.436;2022-09-09T05:43:23;11.10;99.90
16964;DHT22;8598;50.508;10.436;2022-09-09T05:45:59;11.00;99.90
16964;DHT22;8598;50.508;10.436;2022-09-09T05:48:28;11.40;99.90
16964;DHT22;8598;50.508;10.436;2022-09-09T05:50:55;11.40;99.90
16964;DHT22;8598;50.508;10.436;2022-09-09T05:53:22;12.30;99.90
16964;DHT22;8598;50.508;10.436;2022-09-09T05:55:50;11.70;99.90
16964;DHT22;8598;50.508;10.436;2022-09-09T05:58:24;13.30;99.90
16964;DHT22;8598;50.508;10.436;2022-09-09T06:00:50;12.80;99.90
16964;DHT22;8598;50.508;10.436;2022-09-09T06:03:17;12.10;99.90
16964;DHT22;8598;50.508;10.436;2022-09-09T06:05:44;12.00;99.90
16964;DHT22;8598;50.508;10.436;2022-09-09T06:08:10;13.60;99.90
16964;DHT22;8598;50.508;10.436;2022-09-09T06:10:37;12.00;99.90
16964;DHT22;8598;50.508;10.436;2022-09-09T06:13:05;13.10;99.90
16964;DHT22;8598;50.508;10.436;2022-09-09T06:15:32;12.70;99.90
16964;DHT22;8598;50.508;10.436;2022-09-09T06:17:59;13.00;99.90
16964;DHT22;8598;50.508;10.436;2022-09-09T06:20:26;13.40;99.90
16964;DHT22;8598;50.508;10.436;2022-09-09T06:22:56;14.40;99.90
16964;DHT22;8598;50.508;10.436;2022-09-09T06:25:22;12.80;99.90
16964;DHT22;8598;50.508;10.436;2022-09-09T06:27:49;13.40;99.90
16964;DHT22;8598;50.508;10.436;2022-09-09T06:30:17;13.00;99.90
16964;DHT22;8598;50.508;10.436;2022-09-09T06:32:44;13.90;99.90
16964;DHT22;8598;50.508;10.436;2022-09-09T06:35:11;13.90;99.90
16964;DHT22;8598;50.508;10.436;2022-09-09T06:37:38;14.80;99.90
16964;DHT22;8598;50.508;10.436;2022-09-09T06:40:06;17.10;99.90
16964;DHT22;8598;50.508;10.436;2022-09-09T06:42:33;16.90;99.90
16964;DHT22;8598;50.508;10.436;2022-09-09T06:45:00;17.10;99.90
16964;DHT22;8598;50.508;10.436;2022-09-09T06:47:29;17.50;99.90
16964;DHT22;8598;50.508;10.436;2022-09-09T06:49:56;17.20;99.90
16964;DHT22;8598;50.508;10.436;2022-09-09T06:52:23;16.80;99.90
16964;DHT22;8598;50.508;10.436;2022-09-09T06:54:51;17.80;99.90
16964;DHT22;8598;50.508;10.436;2022-09-09T06:57:19;16.30;99.90
16964;DHT22;8598;50.508;10.436;2022-09-09T06:59:46;17.70;99.90
16964;DHT22;8598;50.508;10.436;2022-09-09T07:02:13;16.90;99.90
16964;DHT22;8598;50.508;10.436;2022-09-09T07:04:41;17.40;99.90
16964;DHT22;8598;50.508;10.436;2022-09-09T07:07:08;15.70;99.90
16964;DHT22;8598;50.508;10.436;2022-09-09T07:09:37;15.60;99.90
16964;DHT22;8598;50.508;10.436;2022-09-09T07:12:04;16.20;99.90
16964;DHT22;8598;50.508;10.436;2022-09-09T07:14:31;16.30;99.90
16964;DHT22;8598;50.508;10.436;2022-09-09T07:16:59;17.40;99.90
16964;DHT22;8598;50.508;10.436;2022-09-09T07:19:26;17.30;99.90
16964;DHT22;8598;50.508;10.436;2022-09-09T07:21:54;17.40;99.90
16964;DHT22;8598;50.508;10.436;2022-09-09T07:24:21;17.70;99.90
16964;DHT22;8598;50.508;10.436;2022-09-09T07:26:47;18.90;99.90
16964;DHT22;8598;50.508;10.436;2022-09-09T07:29:14;18.50;99.90
16964;DHT22;8598;50.508;10.436;2022-09-09T07:31:41;19.60;99.90
16964;DHT22;8598;50.508;10.436;2022-09-09T07:34:08;20.90;99.90
16964;DHT22;8598;50.508;10.436;2022-09-09T07:36:36;21.60;99.90
16964;DHT22;8598;50.508;10.436;2022-09-09T07:39:06;21.10;99.90
16964;DHT22;8598;50.508;10.436;2022-09-09T07:41:35;20.00;99.90
16964;DHT22;8598;50.508;10.436;2022-09-09T07:44:07;20.60;99.90
16964;DHT22;8598;50.508;10.436;2022-09-09T07:46:34;20.10;99.90
16964;DHT22;8598;50.508;10.436;2022-09-09T07:49:01;21.00;99.90
16964;DHT22;8598;50.508;10.436;2022-09-09T07:51:30;20.10;99.90
16964;DHT22;8598;50.508;10.436;2022-09-09T07:53:59;20.50;99.90
16964;DHT22;8598;50.508;10.436;2022-09-09T07:56:29;20.20;99.90
16964;DHT22;8598;50.508;10.436;2022-09-09T07:58:57;20.00;99.90
16964;DHT22;8598;50.508;10.436;2022-09-09T08:01:27;19.70;99.90
16964;DHT22;8598;50.508;10.436;2022-09-09T08:03:56;19.20;99.90
16964;DHT22;8598;50.508;10.436;2022-09-09T08:06:24;18.80;99.90
16964;DHT22;8598;50.508;10.436;2022-09-09T08:08:52;18.60;99.90
16964;DHT22;8598;50.508;10.436;2022-09-09T08:11:23;19.90;99.90
16964;DHT22;8598;50.508;10.436;2022-09-09T08:13:52;19.20;99.90
16964;DHT22;8598;50.508;10.436;2022-09-09T08:16:20;19.10;99.90
16964;DHT22;8598;50.508;10.436;2022-09-09T08:18:48;20.20;99.90
16964;DHT22;8598;50.508;10.436;2022-09-09T08:21:18;20.50;99.90
16964;DHT22;8598;50.508;10.436;2022-09-09T08:23:46;20.40;99.90
16964;DHT22;8598;50.508;10.436;2022-09-09T08:26:15;21.00;99.90
16964;DHT22;8598;50.508;10.436;2022-09-09T08:28:42;20.40;99.90
16964;DHT22;8598;50.508;10.436;2022-09-09T08:31:12;19.60;99.90
16964;DHT22;8598;50.508;10.436;2022-09-09T08:33:40;20.00;99.90
16964;DHT22;8598;50.508;10.436;2022-09-09T08:36:09;20.70;99.90
16964;DHT22;8598;50.508;10.436;2022-09-09T08:38:37;20.20;99.90
16964;DHT22;8598;50.508;10.436;2022-09-09T08:41:16;20.90;99.90
16964;DHT22;8598;50.508;10.436;2022-09-09T08:47:13;19.60;99.90
16964;DHT22;8598;50.508;10.436;2022-09-09T08:50:11;19.50;99.90
16964;DHT22;8598;50.508;10.436;2022-09-09T08:52:51;19.60;99.90
16964;DHT22;8598;50.508;10.436;2022-09-09T08:55:24;21.00;99.90
16964;DHT22;8598;50.508;10.436;2022-09-09T08:57:54;19.90;99.90
16964;DHT22;8598;50.508;10.436;2022-09-09T09:00:22;21.80;99.90
16964;DHT22;8598;50.508;10.436;2022-09-09T09:02:59;20.90;99.90
16964;DHT22;8598;50.508;10.436;2022-09-09T09:05:35;21.30;99.90
16964;DHT22;8598;50.508;10.436;2022-09-09T09:08:10;21.10;99.90
16964;DHT22;8598;50.508;10.436;2022-09-09T09:10:46;20.60;99.90
16964;DHT22;8598;50.508;10.436;2022-09-09T09:13:17;22.90;99.90
16964;DHT22;8598;50.508;10.436;2022-09-09T09:15:52;21.80;99.90
16964;DHT22;8598;50.508;10.436;2022-09-09T09:18:21;22.20;99.90
16964;DHT22;8598;50.508;10.436;2022-09-09T09:20:57;22.20;99.90
16964;DHT22;8598;50.508;10.436;2022-09-09T09:23:34;22.30;99.90
16964;DHT22;8598;50.508;10.436;2022-09-09T09:26:07;21.60;99.90
16964;DHT22;8598;50.508;10.436;2022-09-09T09:28:36;22.30;99.90
16964;DHT22;8598;50.508;10.436;2022-09-09T09:31:06;21.50;99.90
16964;DHT22;8598;50.508;10.436;2022-09-09T09:33:40;23.00;99.90
16964;DHT22;8598;50.508;10.436;2022-09-09T09:36:10;21.70;99.90
16964;DHT22;8598;50.508;10.436;2022-09-09T09:38:52;21.50;99.90
16964;DHT22;8598;50.508;10.436;2022-09-09T09:41:29;20.20;99.90
16964;DHT22;8598;50.508;10.436;2022-09-09T09:43:56;21.80;99.90
16964;DHT22;8598;50.508;10.436;2022-09-09T09:46:25;23.10;99.90
16964;DHT22;8598;50.508;10.436;2022-09-09T09:49:01;22.10;99.90
16964;DHT22;8598;50.508;10.436;2022-09-09T09:51:29;21.60;99.90
16964;DHT22;8598;50.508;10.436;2022-09-09T09:54:09;22.60;99.90
16964;DHT22;8598;50.508;10.436;2022-09-09T09:56:40;21.10;99.90
16964;DHT22;8598;50.508;10.436;2022-09-09T09:59:20;21.20;99.90
16964;DHT22;8598;50.508;10.436;2022-09-09T10:01:47;21.60;99.90
16964;DHT22;8598;50.508;10.436;2022-09-09T10:04:17;21.50;99.90
16964;DHT22;8598;50.508;10.436;2022-09-09T10:06:46;22.00;99.90
16964;DHT22;8598;50.508;10.436;2022-09-09T10:09:23;22.60;99.90
16964;DHT22;8598;50.508;10.436;2022-09-09T10:11:58;21.90;99.90
16964;DHT22;8598;50.508;10.436;2022-09-09T10:14:32;22.10;99.90
16964;DHT22;8598;50.508;10.436;2022-09-09T10:17:09;21.80;99.90
16964;DHT22;8598;50.508;10.436;2022-09-09T10:19:44;22.50;99.90
16964;DHT22;8598;50.508;10.436;2022-09-09T10:22:24;22.70;99.90
16964;DHT22;8598;50.508;10.436;2022-09-09T10:25:28;22.60;99.90
16964;DHT22;8598;50.508;10.436;2022-09-09T10:31:06;23.60;99.90
16964;DHT22;8598;50.508;10.436;2022-09-09T10:33:44;23.00;99.90
16964;DHT22;8598;50.508;10.436;2022-09-09T10:36:19;22.70;99.90
16964;DHT22;8598;50.508;10.436;2022-09-09T10:38:49;23.30;99.90
16964;DHT22;8598;50.508;10.436;2022-09-09T10:41:20;22.30;99.90
16964;DHT22;8598;50.508;10.436;2022-09-09T10:47:12;21.40;99.90
16964;DHT22;8598;50.508;10.436;2022-09-09T10:50:02;20.80;99.90
16964;DHT22;8598;50.508;10.436;2022-09-09T10:52:38;20.80;99.90
16964;DHT22;8598;50.508;10.436;2022-09-09T10:55:09;20.60;99.90
16964;DHT22;8598;50.508;10.436;2022-09-09T10:57:40;20.60;99.90
16964;DHT22;8598;50.508;10.436;2022-09-09T11:00:15;20.30;99.90
16964;DHT22;8598;50.508;10.436;2022-09-09T11:02:43;20.40;99.90
16964;DHT22;8598;50.508;10.436;2022-09-09T11:05:16;22.60;99.90
16964;DHT22;8598;50.508;10.436;2022-09-09T11:07:48;22.20;99.90
16964;DHT22;8598;50.508;10.436;2022-09-09T11:10:22;22.50;99.90
16964;DHT22;8598;50.508;10.436;2022-09-09T11:12:54;23.20;99.90
16964;DHT22;8598;50.508;10.436;2022-09-09T11:15:29;23.10;99.90
16964;DHT22;8598;50.508;10.436;2022-09-09T11:18:01;22.50;99.90
16964;DHT22;8598;50.508;10.436;2022-09-09T11:20:28;22.50;99.90
16964;DHT22;8598;50.508;10.436;2022-09-09T11:23:00;22.90;99.90
16964;DHT22;8598;50.508;10.436;2022-09-09T11:25:32;22.30;99.90
16964;DHT22;8598;50.508;10.436;2022-09-09T11:28:16;21.90;99.90
16964;DHT22;8598;50.508;10.436;2022-09-09T11:30:56;22.60;99.90
16964;DHT22;8598;50.508;10.436;2022-09-09T11:39:33;20.50;99.90
16964;DHT22;8598;50.508;10.436;2022-09-09T11:42:07;20.30;99.90
16964;DHT22;8598;50.508;10.436;2022-09-09T11:44:41;20.30;99.90
16964;DHT22;8598;50.508;10.436;2022-09-09T11:47:22;21.20;99.90
16964;DHT22;8598;50.508;10.436;2022-09-09T11:49:50;20.30;99.90
16964;DHT22;8598;50.508;10.436;2022-09-09T11:52:35;20.50;99.90
16964;DHT22;8598;50.508;10.436;2022-09-09T11:55:10;21.80;99.90
16964;DHT22;8598;50.508;10.436;2022-09-09T11:57:39;20.50;99.90
16964;DHT22;8598;50.508;10.436;2022-09-09T12:02:49;19.90;99.90
16964;DHT22;8598;50.508;10.436;2022-09-09T12:05:16;20.30;99.90
16964;DHT22;8598;50.508;10.436;2022-09-09T12:07:50;18.90;99.90
16964;DHT22;8598;50.508;10.436;2022-09-09T12:10:23;18.30;99.90
16964;DHT22;8598;50.508;10.436;2022-09-09T12:12:51;18.70;99.90
16964;DHT22;8598;50.508;10.436;2022-09-09T12:15:28;17.80;99.90
16964;DHT22;8598;50.508;10.436;2022-09-09T12:17:56;17.80;99.90
16964;DHT22;8598;50.508;10.436;2022-09-09T12:20:31;19.20;99.90
16964;DHT22;8598;50.508;10.436;2022-09-09T12:23:29;20.30;99.90
16964;DHT22;8598;50.508;10.436;2022-09-09T12:26:12;19.50;99.90
16964;DHT22;8598;50.508;10.436;2022-09-09T12:28:50;19.80;99.90
16964;DHT22;8598;50.508;10.436;2022-09-09T12:31:22;19.90;99.90
16964;DHT22;8598;50.508;10.436;2022-09-09T12:33:51;20.00;99.90
16964;DHT22;8598;50.508;10.436;2022-09-09T12:36:20;21.20;99.90
16964;DHT22;8598;50.508;10.436;2022-09-09T12:38:48;20.20;99.90
16964;DHT22;8598;50.508;10.436;2022-09-09T12:41:21;20.50;99.90
16964;DHT22;8598;50.508;10.436;2022-09-09T12:43:48;20.30;99.90
16964;DHT22;8598;50.508;10.436;2022-09-09T12:46:23;21.00;99.90
16964;DHT22;8598;50.508;10.436;2022-09-09T12:48:52;20.60;99.90
16964;DHT22;8598;50.508;10.436;2022-09-09T12:51:24;21.60;99.90
16964;DHT22;8598;50.508;10.436;2022-09-09T12:53:52;21.00;99.90
16964;DHT22;8598;50.508;10.436;2022-09-09T12:56:23;21.40;99.90
16964;DHT22;8598;50.508;10.436;2022-09-09T12:58:54;21.50;99.90
16964;DHT22;8598;50.508;10.436;2022-09-09T13:01:23;21.40;99.90
16964;DHT22;8598;50.508;10.436;2022-09-09T13:03:51;20.50;99.90
16964;DHT22;8598;50.508;10.436;2022-09-09T13:06:21;20.30;99.90
16964;DHT22;8598;50.508;10.436;2022-09-09T13:08:49;20.50;99.90
16964;DHT22;8598;50.508;10.436;2022-09-09T13:11:18;20.40;99.90
16964;DHT22;8598;50.508;10.436;2022-09-09T13:13:52;19.70;99.90
16964;DHT22;8598;50.508;10.436;2022-09-09T13:16:22;21.00;99.90
16964;DHT22;8598;50.508;10.436;2022-09-09T13:18:49;20.90;99.90
16964;DHT22;8598;50.508;10.436;2022-09-09T13:21:17;19.20;99.90
16964;DHT22;8598;50.508;10.436;2022-09-09T13:23:49;19.20;99.90
16964;DHT22;8598;50.508;10.436;2022-09-09T13:26:22;18.60;99.90
16964;DHT22;8598;50.508;10.436;2022-09-09T13:28:51;18.90;99.90
16964;DHT22;8598;50.508;10.436;2022-09-09T13:31:23;19.20;99.90
16964;DHT22;8598;50.508;10.436;2022-09-09T13:33:53;18.60;99.90
16964;DHT22;8598;50.508;10.436;2022-09-09T13:36:28;19.70;99.90
16964;DHT22;8598;50.508;10.436;2022-09-09T13:38:57;18.60;99.90
16964;DHT22;8598;50.508;10.436;2022-09-09T13:41:28;18.50;99.90
16964;DHT22;8598;50.508;10.436;2022-09-09T13:43:58;19.30;99.90
16964;DHT22;8598;50.508;10.436;2022-09-09T13:46:30;18.60;99.90
16964;DHT22;8598;50.508;10.436;2022-09-09T13:48:58;19.50;99.90
16964;DHT22;8598;50.508;10.436;2022-09-09T13:51:33;18.70;99.90
16964;DHT22;8598;50.508;10.436;2022-09-09T13:54:02;18.70;99.90
16964;DHT22;8598;50.508;10.436;2022-09-09T13:56:30;18.60;99.90
16964;DHT22;8598;50.508;10.436;2022-09-09T13:58:58;18.80;99.90
16964;DHT22;8598;50.508;10.436;2022-09-09T14:01:25;20.10;99.90
16964;DHT22;8598;50.508;10.436;2022-09-09T14:03:52;19.60;99.90
16964;DHT22;8598;50.508;10.436;2022-09-09T14:06:19;18.10;99.90
16964;DHT22;8598;50.508;10.436;2022-09-09T14:08:47;18.50;99.90
16964;DHT22;8598;50.508;10.436;2022-09-09T14:11:14;18.60;99.90
16964;DHT22;8598;50.508;10.436;2022-09-09T14:13:41;18.50;99.90
16964;DHT22;8598;50.508;10.436;2022-09-09T14:16:09;18.80;99.90
16964;DHT22;8598;50.508;10.436;2022-09-09T14:18:36;19.30;99.90
16964;DHT22;8598;50.508;10.436;2022-09-09T14:21:04;19.20;99.90
16964;DHT22;8598;50.508;10.436;2022-09-09T14:23:31;19.80;99.90
16964;DHT22;8598;50.508;10.436;2022-09-09T14:25:58;19.90;99.90
16964;DHT22;8598;50.508;10.436;2022-09-09T14:28:25;20.30;99.90
16964;DHT22;8598;50.508;10.436;2022-09-09T14:30:51;20.20;99.90
16964;DHT22;8598;50.508;10.436;2022-09-09T14:33:20;20.40;99.90
16964;DHT22;8598;50.508;10.436;2022-09-09T14:35:46;20.40;99.90
16964;DHT22;8598;50.508;10.436;2022-09-09T14:38:14;20.40;99.90
16964;DHT22;8598;50.508;10.436;2022-09-09T14:40:41;20.50;99.90
16964;DHT22;8598;50.508;10.436;2022-09-09T14:43:11;21.50;99.90
16964;DHT22;8598;50.508;10.436;2022-09-09T14:45:38;20.20;99.90
16964;DHT22;8598;50.508;10.436;2022-09-09T14:48:05;19.80;99.90
16964;DHT22;8598;50.508;10.436;2022-09-09T14:50:33;19.70;99.90
16964;DHT22;8598;50.508;10.436;2022-09-09T14:53:05;20.80;99.90
16964;DHT22;8598;50.508;10.436;2022-09-09T14:55:32;19.40;99.90
16964;DHT22;8598;50.508;10.436;2022-09-09T14:57:59;20.10;99.90
16964;DHT22;8598;50.508;10.436;2022-09-09T15:00:26;18.60;99.90
16964;DHT22;8598;50.508;10.436;2022-09-09T15:02:53;19.10;99.90
16964;DHT22;8598;50.508;10.436;2022-09-09T15:05:20;19.40;99.90
16964;DHT22;8598;50.508;10.436;2022-09-09T15:07:48;20.00;99.90
16964;DHT22;8598;50.508;10.436;2022-09-09T15:10:15;19.20;99.90
16964;DHT22;8598;50.508;10.436;2022-09-09T15:12:43;19.10;99.90
16964;DHT22;8598;50.508;10.436;2022-09-09T15:15:10;19.50;99.90
16964;DHT22;8598;50.508;10.436;2022-09-09T15:17:38;19.10;99.90
16964;DHT22;8598;50.508;10.436;2022-09-09T15:20:05;19.00;99.90
16964;DHT22;8598;50.508;10.436;2022-09-09T15:22:33;19.30;99.90
16964;DHT22;8598;50.508;10.436;2022-09-09T15:25:04;19.20;99.90
16964;DHT22;8598;50.508;10.436;2022-09-09T15:27:31;19.10;99.90
16964;DHT22;8598;50.508;10.436;2022-09-09T15:29:59;21.00;99.90
16964;DHT22;8598;50.508;10.436;2022-09-09T15:32:26;19.20;99.90
16964;DHT22;8598;50.508;10.436;2022-09-09T15:34:53;19.90;99.90
16964;DHT22;8598;50.508;10.436;2022-09-09T15:37:20;20.80;99.90
16964;DHT22;8598;50.508;10.436;2022-09-09T15:39:47;20.50;99.90
16964;DHT22;8598;50.508;10.436;2022-09-09T15:42:15;18.90;99.90
16964;DHT22;8598;50.508;10.436;2022-09-09T15:44:42;19.80;99.90
16964;DHT22;8598;50.508;10.436;2022-09-09T15:47:11;18.60;99.90
16964;DHT22;8598;50.508;10.436;2022-09-09T15:51:14;18.60;99.90
16964;DHT22;8598;50.508;10.436;2022-09-09T15:53:41;18.90;99.90
16964;DHT22;8598;50.508;10.436;2022-09-09T15:56:09;18.60;99.90
16964;DHT22;8598;50.508;10.436;2022-09-09T15:58:36;19.20;99.90
16964;DHT22;8598;50.508;10.436;2022-09-09T16:01:03;20.10;99.90
16964;DHT22;8598;50.508;10.436;2022-09-09T16:03:33;18.60;99.90
16964;DHT22;8598;50.508;10.436;2022-09-09T16:06:00;19.70;99.90
16964;DHT22;8598;50.508;10.436;2022-09-09T16:08:32;18.70;99.90
16964;DHT22;8598;50.508;10.436;2022-09-09T16:12:24;18.30;99.90
16964;DHT22;8598;50.508;10.436;2022-09-09T16:14:51;18.80;99.90
16964;DHT22;8598;50.508;10.436;2022-09-09T16:17:18;18.30;99.90